Time;durP1;ratioP1;P1;durP2;ratioP2;P2;SDS_P1;SDS_P2;PMS_P1;PMS_P2;Temp;Humidity;BMP_temperature;BMP_pressure;BME280_temperature;BME280_humidity;BME280_pressure;Samples;Min_cycle;Max_cycle;Signal;HPM_P1;HPM_P2
2023/04/05 00:01:33;;;;;;;6.70;3.65;;;2.70;99.90;;;;;;4978365;28;20370;-78
2023/04/05 00:03:59;;;;;;;6.72;3.53;;;3.50;99.90;;;;;;4978529;28;20075;-78
2023/04/05 00:06:27;;;;;;;5.70;3.28;;;3.30;99.90;;;;;;4978935;28;20142;-79
2023/04/05 00:09:03;;;;;;;7.07;3.63;;;2.90;99.90;;;;;;4978329;28;20050;-79
2023/04/05 00:11:31;;;;;;;5.40;3.33;;;2.50;99.90;;;;;;4978533;28;20073;-79
2023/04/05 00:14:01;;;;;;;7.38;3.30;;;2.30;99.90;;;;;;4978695;28;20050;-78
2023/04/05 00:16:28;;;;;;;6.70;3.83;;;3.20;99.90;;;;;;4978177;28;20090;-78
2023/04/05 00:18:59;;;;;;;5.40;3.30;;;2.30;99.90;;;;;;4978048;28;20043;-78
2023/04/05 00:21:24;;;;;;;7.45;3.70;;;2.20;99.90;;;;;;4978155;28;20054;-78
2023/04/05 00:23:53;;;;;;;6.63;3.53;;;2.30;99.90;;;;;;4977959;28;20071;-78
2023/04/05 00:26:20;;;;;;;5.63;3.47;;;2.80;99.90;;;;;;4977916;28;20141;-78
2023/04/05 00:28:49;;;;;;;7.45;3.30;;;2.20;99.90;;;;;;4977964;28;20086;-78
2023/04/05 00:31:15;;;;;;;7.00;4.10;;;2.40;99.90;;;;;;4961406;28;20053;-78
2023/04/05 00:33:41;;;;;;;6.78;3.20;;;2.60;99.90;;;;;;4960767;28;20440;-79
2023/04/05 00:36:14;;;;;;;7.28;3.80;;;2.10;99.90;;;;;;4944617;28;20050;-77
2023/04/05 00:38:40;;;;;;;6.65;3.65;;;2.10;99.90;;;;;;4961112;28;20094;-79
2023/04/05 00:41:06;;;;;;;6.00;3.33;;;3.30;99.90;;;;;;4978253;28;20577;-78
2023/04/05 00:43:33;;;;;;;9.13;3.72;;;2.10;99.90;;;;;;4960541;28;20448;-78
2023/04/05 00:45:59;;;;;;;6.65;3.20;;;2.90;99.90;;;;;;4977680;28;20050;-79
2023/04/05 00:48:25;;;;;;;5.57;3.88;;;2.00;99.90;;;;;;4978398;28;20078;-79
2023/04/05 00:50:51;;;;;;;8.65;4.15;;;3.00;99.90;;;;;;4977553;28;20046;-78
2023/04/05 00:53:19;;;;;;;8.30;3.75;;;3.00;99.90;;;;;;4977964;28;20047;-78
2023/04/05 00:55:47;;;;;;;6.57;3.28;;;1.90;99.90;;;;;;4977464;28;20109;-78
2023/04/05 00:58:18;;;;;;;6.03;3.92;;;2.00;99.90;;;;;;4961126;28;20073;-78
2023/04/05 01:01:15;;;;;;;5.75;3.90;;;2.00;99.90;;;;;;4977426;28;20126;-78
2023/04/05 01:03:58;;;;;;;7.45;3.60;;;1.90;99.90;;;;;;4977469;28;20054;-78
2023/04/05 01:06:42;;;;;;;6.72;3.53;;;1.90;99.90;;;;;;4977542;28;20046;-77
2023/04/05 01:09:19;;;;;;;6.82;3.60;;;1.80;99.90;;;;;;4976928;28;20055;-77
2023/04/05 01:11:47;;;;;;;6.35;3.63;;;1.80;99.90;;;;;;4960674;28;20050;-78
2023/04/05 01:14:13;;;;;;;5.68;3.00;;;1.80;99.90;;;;;;4977204;28;20046;-78
2023/04/05 01:16:39;;;;;;;5.45;3.42;;;2.40;99.90;;;;;;4960078;28;20357;-79
2023/04/05 01:19:05;;;;;;;7.95;3.42;;;3.00;99.90;;;;;;4977475;28;20082;-78
2023/04/05 01:21:44;;;;;;;6.13;3.03;;;1.70;99.90;;;;;;4977797;28;20090;-78
2023/04/05 01:24:13;;;;;;;5.38;3.13;;;1.60;99.90;;;;;;4978328;28;20050;-77
2023/04/05 01:26:55;;;;;;;6.28;3.17;;;2.90;99.90;;;;;;4983953;28;20519;-78
2023/04/05 01:29:50;;;;;;;5.72;3.38;;;1.60;99.90;;;;;;4982218;28;20404;-77
2023/04/05 01:32:16;;;;;;;5.75;3.22;;;1.60;99.90;;;;;;4977669;28;20540;-76
2023/04/05 01:34:55;;;;;;;6.47;3.33;;;2.00;99.90;;;;;;4977160;28;20082;-78
2023/04/05 01:37:26;;;;;;;5.80;3.50;;;2.30;99.90;;;;;;4977510;28;20057;-77
2023/04/05 01:39:52;;;;;;;8.10;3.53;;;2.00;99.90;;;;;;4976976;28;20054;-77
2023/04/05 01:42:24;;;;;;;8.10;3.25;;;2.50;99.90;;;;;;4976857;28;20043;-78
2023/04/05 01:44:50;;;;;;;4.90;2.92;;;1.60;99.90;;;;;;4976827;28;20057;-78
2023/04/05 01:47:16;;;;;;;5.80;3.00;;;2.30;99.90;;;;;;4977473;28;20050;-78
2023/04/05 01:49:42;;;;;;;5.65;3.60;;;1.50;99.90;;;;;;4976523;28;20485;-77
2023/04/05 01:52:07;;;;;;;6.10;3.33;;;2.50;99.90;;;;;;4959172;28;20042;-78
2023/04/05 01:54:33;;;;;;;8.70;3.92;;;1.20;99.90;;;;;;4959421;28;20110;-78
2023/04/05 01:56:59;;;;;;;6.65;3.38;;;1.50;99.90;;;;;;4976468;28;20129;-78
2023/04/05 01:59:24;;;;;;;5.13;2.95;;;2.70;99.90;;;;;;4944204;28;20154;-78
2023/04/05 02:01:51;;;;;;;4.97;3.20;;;1.30;99.90;;;;;;4977550;28;20055;-77
2023/04/05 02:04:17;;;;;;;8.65;4.22;;;1.60;99.90;;;;;;4962676;28;20078;-76
2023/04/05 02:06:43;;;;;;;5.40;3.50;;;2.00;99.90;;;;;;4966848;28;20050;-76
2023/04/05 02:09:08;;;;;;;7.90;3.75;;;1.30;99.90;;;;;;4950291;28;20127;-76
2023/04/05 02:11:34;;;;;;;6.35;3.67;;;1.60;99.90;;;;;;4963231;28;20109;-77
2023/04/05 02:14:00;;;;;;;5.72;3.63;;;1.40;99.90;;;;;;4959373;28;20101;-76
2023/04/05 02:16:25;;;;;;;8.85;4.47;;;1.60;99.90;;;;;;4944066;28;20053;-77
2023/04/05 02:18:56;;;;;;;8.57;4.57;;;1.60;99.90;;;;;;4959042;28;20042;-76
2023/04/05 02:21:22;;;;;;;7.85;4.57;;;1.30;99.90;;;;;;4975336;28;20097;-76
2023/04/05 02:23:48;;;;;;;8.27;4.32;;;2.40;99.90;;;;;;4976021;28;20459;-78
2023/04/05 02:26:14;;;;;;;9.60;4.75;;;1.70;99.90;;;;;;4976687;28;20053;-76
2023/04/05 02:28:40;;;;;;;8.82;4.53;;;1.70;99.90;;;;;;4976147;28;20129;-76
2023/04/05 02:31:10;;;;;;;9.18;4.70;;;1.80;99.90;;;;;;4975835;28;20054;-76
2023/04/05 02:33:37;;;;;;;9.25;4.65;;;1.60;99.90;;;;;;4958947;28;20058;-76
2023/04/05 02:36:08;;;;;;;10.05;4.85;;;1.30;99.90;;;;;;4976425;28;20054;-76
2023/04/05 02:38:35;;;;;;;7.63;4.63;;;1.30;99.90;;;;;;4975775;28;20481;-77
2023/04/05 02:41:01;;;;;;;8.85;4.68;;;2.00;99.90;;;;;;4975323;28;20500;-76
2023/04/05 02:43:26;;;;;;;9.48;5.43;;;2.00;99.90;;;;;;4976110;28;20051;-76
2023/04/05 02:45:52;;;;;;;8.80;4.93;;;2.10;99.90;;;;;;4975613;28;20054;-76
2023/04/05 02:48:18;;;;;;;7.68;5.05;;;1.70;99.90;;;;;;4975500;28;20515;-77
2023/04/05 02:50:50;;;;;;;8.70;5.47;;;2.70;99.90;;;;;;4958898;28;20050;-77
2023/04/05 02:53:17;;;;;;;7.85;4.63;;;2.20;99.90;;;;;;4957724;28;20098;-77
2023/04/05 02:55:52;;;;;;;7.80;4.75;;;2.20;99.90;;;;;;4957866;28;20055;-77
2023/04/05 02:58:17;;;;;;;12.15;5.03;;;1.30;99.90;;;;;;4975254;28;20053;-76
2023/04/05 03:00:50;;;;;;;12.70;5.22;;;1.20;99.90;;;;;;4975136;28;20043;-77
2023/04/05 03:03:20;;;;;;;8.88;5.40;;;2.00;99.90;;;;;;4958106;28;20489;-77
2023/04/05 03:05:47;;;;;;;7.15;5.10;;;1.30;99.90;;;;;;4958077;28;20054;-78
2023/04/05 03:08:17;;;;;;;9.10;5.07;;;2.10;99.90;;;;;;4974775;28;20542;-76
2023/04/05 03:10:45;;;;;;;7.32;4.63;;;1.30;99.90;;;;;;4975156;28;20053;-76
2023/04/05 03:13:11;;;;;;;7.03;4.75;;;1.30;99.90;;;;;;4957753;28;20519;-78
2023/04/05 03:15:36;;;;;;;10.38;5.07;;;1.20;99.90;;;;;;4974960;28;20046;-77
2023/04/05 03:18:02;;;;;;;8.65;5.25;;;1.40;99.90;;;;;;4974963;28;20555;-78
2023/04/05 03:20:28;;;;;;;9.18;5.15;;;1.20;99.90;;;;;;4974902;28;20074;-77
2023/04/05 03:22:53;;;;;;;9.00;5.70;;;1.20;99.90;;;;;;4975417;28;20451;-77
2023/04/05 03:25:19;;;;;;;12.10;5.25;;;2.00;99.90;;;;;;4942065;28;20074;-76
2023/04/05 03:27:45;;;;;;;10.20;5.13;;;1.30;99.90;;;;;;4958569;28;20039;-76
2023/04/05 03:30:11;;;;;;;9.38;5.00;;;1.10;99.90;;;;;;4957529;28;20070;-77
2023/04/05 03:32:37;;;;;;;8.68;4.90;;;1.10;99.90;;;;;;4975073;28;20051;-78
2023/04/05 03:35:03;;;;;;;7.13;5.10;;;1.30;99.90;;;;;;4958214;28;20175;-77
2023/04/05 03:37:28;;;;;;;7.95;4.72;;;1.10;99.90;;;;;;4958323;28;20050;-77
2023/04/05 03:39:54;;;;;;;9.50;5.55;;;1.30;99.90;;;;;;4974978;28;20378;-77
2023/04/05 03:42:20;;;;;;;9.82;5.45;;;1.20;99.90;;;;;;4974371;28;20050;-78
2023/04/05 03:44:48;;;;;;;8.88;5.53;;;1.80;99.90;;;;;;4957669;28;20385;-77
2023/04/05 03:47:14;;;;;;;9.43;5.28;;;1.00;99.90;;;;;;4974585;28;20061;-77
2023/04/05 03:49:39;;;;;;;8.75;5.90;;;1.10;99.90;;;;;;4974657;28;20130;-77
2023/04/05 03:52:05;;;;;;;8.43;5.57;;;1.40;99.90;;;;;;4957558;28;20047;-77
2023/04/05 03:54:31;;;;;;;10.05;5.68;;;1.40;99.90;;;;;;4974446;28;20141;-78
2023/04/05 03:56:57;;;;;;;9.30;5.50;;;1.30;99.90;;;;;;4975115;28;20454;-78
2023/04/05 03:59:22;;;;;;;8.15;5.60;;;1.30;99.90;;;;;;4957476;28;20047;-77
2023/04/05 04:01:48;;;;;;;9.73;6.10;;;0.90;99.90;;;;;;4957152;28;20389;-77
2023/04/05 04:04:14;;;;;;;8.68;5.60;;;1.00;99.90;;;;;;4974340;28;20469;-78
2023/04/05 04:06:40;;;;;;;8.23;5.60;;;0.80;99.90;;;;;;4974194;28;20473;-78
2023/04/05 04:09:06;;;;;;;9.30;5.18;;;1.10;99.90;;;;;;4974486;28;20125;-78
2023/04/05 04:11:32;;;;;;;8.40;5.38;;;0.80;99.90;;;;;;4975189;28;20127;-78
2023/04/05 04:13:58;;;;;;;11.07;5.65;;;0.70;99.90;;;;;;4941079;28;20043;-76
2023/04/05 04:16:23;;;;;;;8.63;5.50;;;1.30;99.90;;;;;;4941382;28;20082;-78
2023/04/05 04:18:53;;;;;;;10.02;5.70;;;1.00;99.90;;;;;;4957339;28;20051;-78
2023/04/05 04:21:23;;;;;;;9.55;6.07;;;1.10;99.90;;;;;;4957722;28;20101;-78
2023/04/05 04:23:50;;;;;;;10.00;6.30;;;1.80;99.90;;;;;;4957078;28;20047;-78
2023/04/05 04:26:25;;;;;;;8.38;5.72;;;0.70;99.90;;;;;;4974342;28;20058;-78
2023/04/05 04:28:52;;;;;;;9.15;5.72;;;0.80;99.90;;;;;;4974349;28;20118;-79
2023/04/05 04:31:20;;;;;;;10.15;6.60;;;1.60;99.90;;;;;;4974147;28;20110;-79
2023/04/05 04:33:48;;;;;;;10.43;5.63;;;0.90;99.90;;;;;;4974401;28;20051;-79
2023/04/05 04:36:13;;;;;;;9.98;5.68;;;1.00;99.90;;;;;;4974303;28;20086;-79
2023/04/05 04:38:43;;;;;;;11.15;6.07;;;0.60;99.90;;;;;;4974317;28;20464;-79
2023/04/05 04:41:19;;;;;;;9.98;6.63;;;1.10;99.90;;;;;;4957430;28;20125;-79
2023/04/05 04:43:44;;;;;;;12.32;6.13;;;0.80;99.90;;;;;;4975612;28;20130;-79
2023/04/05 04:46:13;;;;;;;10.95;6.50;;;1.90;99.90;;;;;;4977708;28;20134;-79
2023/04/05 04:48:43;;;;;;;10.75;6.18;;;1.70;99.90;;;;;;4977557;28;20043;-79
2023/04/05 04:51:09;;;;;;;10.73;6.40;;;0.60;99.90;;;;;;4977468;28;20050;-79
2023/04/05 04:53:34;;;;;;;11.65;6.82;;;2.10;99.90;;;;;;4960528;28;20050;-79
2023/04/05 04:56:00;;;;;;;10.50;6.30;;;0.40;99.90;;;;;;4960237;28;20066;-79
2023/04/05 04:58:27;;;;;;;8.70;5.50;;;1.60;99.90;;;;;;4961067;28;20054;-80
2023/04/05 05:00:53;;;;;;;9.82;5.95;;;0.70;99.90;;;;;;4960326;28;20433;-80
2023/04/05 05:03:18;;;;;;;12.93;6.88;;;2.10;99.90;;;;;;4977161;28;20047;-80
2023/04/05 05:05:45;;;;;;;8.93;6.10;;;2.20;99.90;;;;;;4977500;28;20097;-80
2023/04/05 05:08:12;;;;;;;12.35;6.28;;;1.50;99.90;;;;;;4977910;28;20121;-79
2023/04/05 05:10:38;;;;;;;12.82;7.15;;;1.90;99.90;;;;;;4977849;28;20145;-80
2023/04/05 05:13:04;;;;;;;10.70;6.57;;;1.50;99.90;;;;;;4977070;28;20133;-80
2023/04/05 05:15:30;;;;;;;10.68;6.57;;;1.30;99.90;;;;;;4976968;28;20049;-80
2023/04/05 05:17:57;;;;;;;12.00;6.38;;;1.00;99.90;;;;;;4976775;28;20099;-80
2023/04/05 05:20:24;;;;;;;10.43;6.32;;;0.40;99.90;;;;;;4959870;28;20086;-80
2023/04/05 05:22:50;;;;;;;10.35;7.10;;;0.50;99.90;;;;;;4977552;28;20097;-80
2023/04/05 05:25:15;;;;;;;10.90;7.43;;;0.40;99.90;;;;;;4977279;28;20539;-80
2023/04/05 05:27:41;;;;;;;11.77;7.38;;;0.50;99.90;;;;;;4960136;28;20050;-80
2023/04/05 05:30:08;;;;;;;12.68;7.15;;;1.20;99.90;;;;;;4976782;28;20053;-80
2023/04/05 05:32:33;;;;;;;11.25;7.00;;;0.60;99.90;;;;;;4976674;28;20075;-80
2023/04/05 05:34:59;;;;;;;10.73;7.32;;;1.10;99.90;;;;;;4977422;28;20043;-80
2023/04/05 05:37:33;;;;;;;11.52;6.88;;;1.80;99.90;;;;;;4977506;28;20366;-80
2023/04/05 05:39:59;;;;;;;11.13;7.15;;;1.00;99.90;;;;;;4960321;28;20373;-80
2023/04/05 05:42:26;;;;;;;12.35;6.65;;;0.60;99.90;;;;;;4976566;28;20043;-80
2023/04/05 05:44:52;;;;;;;13.77;6.93;;;2.10;99.90;;;;;;4976958;28;20051;-79
2023/04/05 05:47:18;;;;;;;11.90;6.65;;;1.70;99.90;;;;;;4976423;28;20401;-79
2023/04/05 05:49:43;;;;;;;13.57;7.07;;;1.10;99.90;;;;;;4959230;28;20050;-79
2023/04/05 05:52:09;;;;;;;10.02;6.95;;;1.50;99.90;;;;;;4976540;28;20050;-79
2023/04/05 05:54:35;;;;;;;12.05;7.20;;;1.30;99.90;;;;;;4942974;28;20501;-80
2023/04/05 05:57:01;;;;;;;11.38;7.07;;;1.80;99.90;;;;;;4976724;28;20054;-79
2023/04/05 05:59:27;;;;;;;10.23;7.07;;;1.40;99.90;;;;;;4959379;28;20055;-79
2023/04/05 06:01:54;;;;;;;12.68;6.78;;;1.00;99.90;;;;;;4976133;28;20054;-79
2023/04/05 06:04:20;;;;;;;11.55;6.35;;;1.10;99.90;;;;;;4976533;28;20046;-79
2023/04/05 06:06:46;;;;;;;9.30;6.25;;;1.20;99.90;;;;;;4976038;28;20097;-79
2023/04/05 06:09:14;;;;;;;13.25;7.10;;;1.20;99.90;;;;;;4976099;28;20059;-78
2023/04/05 06:11:39;;;;;;;8.90;6.15;;;2.50;99.90;;;;;;4975965;28;20133;-79
2023/04/05 06:14:05;;;;;;;10.88;6.15;;;1.30;99.90;;;;;;4975961;28;20125;-79
2023/04/05 06:16:31;;;;;;;11.20;7.20;;;2.20;99.90;;;;;;4959243;28;20105;-79
2023/04/05 06:18:56;;;;;;;10.02;6.72;;;2.00;99.90;;;;;;4959632;28;20465;-79
2023/04/05 06:21:22;;;;;;;11.18;6.40;;;1.80;99.90;;;;;;4976424;28;20044;-78
2023/04/05 06:23:48;;;;;;;9.63;6.30;;;1.60;99.90;;;;;;4975773;28;20046;-78
2023/04/05 06:26:19;;;;;;;10.23;6.07;;;1.60;99.90;;;;;;4958920;28;20086;-78
2023/04/05 06:28:46;;;;;;;8.40;5.60;;;1.80;99.90;;;;;;4959145;28;20047;-78
2023/04/05 06:31:15;;;;;;;6.50;5.45;;;2.30;99.90;;;;;;4976198;28;20050;-78
2023/04/05 06:33:41;;;;;;;11.32;6.40;;;1.80;99.90;;;;;;4961671;28;20126;-77
2023/04/05 06:36:07;;;;;;;9.15;5.95;;;2.60;99.90;;;;;;4982929;28;20057;-76
2023/04/05 06:38:32;;;;;;;8.57;5.78;;;1.90;99.90;;;;;;4979284;28;20054;-79
2023/04/05 06:40:58;;;;;;;9.18;5.05;;;3.10;99.90;;;;;;4976331;28;20054;-78
2023/04/05 06:43:24;;;;;;;7.20;5.32;;;2.10;99.90;;;;;;4975813;28;20089;-78
2023/04/05 06:45:50;;;;;;;8.32;4.82;;;2.90;99.90;;;;;;4942817;28;20051;-78
2023/04/05 06:48:16;;;;;;;7.68;4.80;;;2.30;99.90;;;;;;4975457;28;20080;-78
2023/04/05 06:50:41;;;;;;;7.63;5.07;;;2.60;99.90;;;;;;4975390;28;20082;-77
2023/04/05 06:53:07;;;;;;;6.97;4.57;;;2.20;99.90;;;;;;4958902;28;20043;-78
2023/04/05 06:55:33;;;;;;;10.85;5.45;;;2.70;99.90;;;;;;4957840;28;20109;-78
2023/04/05 06:57:58;;;;;;;8.77;5.25;;;2.20;99.90;;;;;;4975910;28;20502;-77
2023/04/05 07:00:24;;;;;;;7.30;5.18;;;2.40;99.90;;;;;;4957984;28;20050;-77
2023/04/05 07:02:50;;;;;;;6.22;4.28;;;2.70;99.90;;;;;;4957846;28;20051;-77
2023/04/05 07:05:16;;;;;;;8.30;4.05;;;2.40;99.90;;;;;;4975419;28;20046;-77
2023/04/05 07:07:44;;;;;;;11.05;5.35;;;2.80;99.90;;;;;;4976119;28;20055;-78
2023/04/05 07:10:10;;;;;;;7.47;4.70;;;3.20;99.90;;;;;;4981097;28;20047;-75
2023/04/05 07:12:36;;;;;;;7.72;5.00;;;3.60;99.90;;;;;;4946531;28;20047;-78
2023/04/05 07:15:02;;;;;;;7.18;4.82;;;3.40;99.90;;;;;;4975741;28;20039;-76
2023/04/05 07:17:28;;;;;;;10.35;4.55;;;2.80;99.90;;;;;;4958175;28;20567;-78
2023/04/05 07:19:54;;;;;;;6.07;3.58;;;2.80;99.90;;;;;;4975851;28;20050;-77
2023/04/05 07:22:20;;;;;;;5.60;3.80;;;3.00;99.90;;;;;;4975184;28;20121;-77
2023/04/05 07:24:45;;;;;;;6.60;4.18;;;3.30;99.90;;;;;;4975094;28;20042;-77
2023/04/05 07:27:11;;;;;;;6.15;3.65;;;3.10;99.90;;;;;;4975013;28;20522;-77
2023/04/05 07:29:39;;;;;;;7.00;4.68;;;3.40;99.90;;;;;;4975079;28;20054;-73
2023/04/05 07:32:06;;;;;;;6.28;3.88;;;3.60;99.90;;;;;;4974937;28;20134;-78
2023/04/05 07:34:33;;;;;;;6.88;3.65;;;3.50;99.90;;;;;;4975016;28;20050;-78
2023/04/05 07:36:58;;;;;;;8.07;3.53;;;3.70;99.90;;;;;;4942096;28;20190;-77
2023/04/05 07:39:24;;;;;;;7.13;4.47;;;3.30;99.90;;;;;;4974877;28;20473;-77
2023/04/05 07:41:50;;;;;;;6.47;3.83;;;3.30;99.90;;;;;;4957759;28;20465;-79
2023/04/05 07:44:16;;;;;;;7.65;4.25;;;3.50;99.90;;;;;;4974805;28;20047;-79
2023/04/05 07:46:43;;;;;;;5.25;3.70;;;3.50;99.90;;;;;;4957860;28;20085;-78
2023/04/05 07:49:10;;;;;;;6.53;4.60;;;4.30;99.90;;;;;;4974694;28;20043;-78
2023/04/05 07:51:37;;;;;;;9.15;4.80;;;4.20;99.90;;;;;;4974622;28;20413;-78
2023/04/05 07:54:04;;;;;;;6.35;4.03;;;3.60;99.90;;;;;;4974718;28;20051;-76
2023/04/05 07:56:30;;;;;;;7.13;3.35;;;3.50;99.90;;;;;;4974430;28;20152;-80
2023/04/05 07:58:57;;;;;;;8.68;3.50;;;4.20;99.90;;;;;;4974614;28;20054;-77
2023/04/05 08:01:26;;;;;;;5.50;3.38;;;4.10;99.90;;;;;;4958281;28;20103;-74
2023/04/05 08:03:53;;;;;;;6.13;3.20;;;4.50;99.90;;;;;;4974525;28;20051;-77
2023/04/05 08:06:19;;;;;;;6.90;4.15;;;4.20;99.90;;;;;;4975025;28;20401;-77
2023/04/05 08:08:45;;;;;;;8.55;3.53;;;4.40;99.90;;;;;;4957825;28;20055;-77
2023/04/05 08:11:12;;;;;;;6.30;3.47;;;4.40;99.90;;;;;;4974488;28;20050;-77
2023/04/05 08:13:40;;;;;;;6.18;3.40;;;4.60;99.90;;;;;;4974207;28;20560;-78
2023/04/05 08:16:10;;;;;;;5.70;3.40;;;4.00;99.90;;;;;;4974462;28;20047;-79
2023/04/05 08:18:36;;;;;;;4.72;3.20;;;4.10;99.90;;;;;;4958344;28;20070;-79
2023/04/05 08:21:02;;;;;;;5.35;3.03;;;4.10;99.90;;;;;;4978106;28;20456;-80
2023/04/05 08:23:27;;;;;;;5.97;2.97;;;4.30;99.90;;;;;;4978055;28;20047;-81
2023/04/05 08:25:53;;;;;;;6.97;3.10;;;4.90;99.90;;;;;;4978061;28;20067;-80
2023/04/05 08:28:19;;;;;;;4.82;3.20;;;4.70;99.90;;;;;;4978030;28;20097;-80
2023/04/05 08:30:45;;;;;;;5.40;3.17;;;4.70;99.90;;;;;;4977965;28;20086;-81
2023/04/05 08:33:11;;;;;;;7.10;3.08;;;4.60;99.90;;;;;;4977874;28;20051;-80
2023/04/05 08:35:38;;;;;;;7.05;3.08;;;4.70;99.90;;;;;;4977980;28;20065;-80
2023/04/05 08:38:05;;;;;;;5.55;3.20;;;5.00;99.90;;;;;;4978156;28;20054;-81
2023/04/05 08:40:45;;;;;;;5.28;3.60;;;5.10;99.90;;;;;;4977813;28;20082;-80
2023/04/05 08:43:35;;;;;;;3.42;2.60;;;4.90;99.90;;;;;;4977783;28;20396;-79
2023/04/05 08:46:02;;;;;;;4.63;2.38;;;5.00;99.90;;;;;;4960676;28;20480;-79
2023/04/05 08:48:31;;;;;;;5.80;2.75;;;5.00;99.90;;;;;;4978422;28;20062;-80
2023/04/05 08:50:56;;;;;;;5.25;2.70;;;5.50;99.90;;;;;;4960550;28;20059;-79
2023/04/05 08:53:22;;;;;;;3.47;2.35;;;5.40;99.90;;;;;;4944626;28;20058;-80
2023/04/05 08:55:52;;;;;;;4.07;2.35;;;5.60;99.90;;;;;;4977661;28;20051;-80
2023/04/05 08:58:23;;;;;;;5.63;3.00;;;5.40;99.90;;;;;;4960202;28;20089;-80
2023/04/05 09:00:54;;;;;;;4.47;2.22;;;5.40;99.90;;;;;;4977694;28;20432;-79
2023/04/05 09:03:28;;;;;;;4.93;2.47;;;5.50;99.90;;;;;;4977127;28;20066;-79
2023/04/05 09:05:57;;;;;;;5.03;2.42;;;5.80;99.90;;;;;;4960606;28;20051;-79
2023/04/05 09:08:23;;;;;;;2.75;1.70;;;5.70;99.90;;;;;;4977208;28;20054;-79
2023/04/05 09:10:52;;;;;;;3.88;1.60;;;6.00;99.90;;;;;;4977207;28;20050;-80
2023/04/05 09:13:18;;;;;;;4.72;1.60;;;6.10;99.90;;;;;;4977925;28;20047;-79
2023/04/05 09:15:45;;;;;;;8.25;1.90;;;6.00;99.90;;;;;;4977597;28;20043;-79
2023/04/05 09:18:10;;;;;;;3.67;1.88;;;6.50;99.90;;;;;;4977161;28;20073;-79
2023/04/05 09:20:36;;;;;;;2.28;1.10;;;6.10;99.90;;;;;;4976999;28;20497;-79
2023/04/05 09:23:02;;;;;;;3.38;2.00;;;6.40;99.90;;;;;;4959886;28;20039;-79
2023/04/05 09:25:31;;;;;;;3.08;1.20;;;6.10;99.90;;;;;;4977683;28;20425;-80
2023/04/05 09:27:58;;;;;;;3.78;1.70;;;6.30;99.90;;;;;;4977159;28;20051;-79
2023/04/05 09:30:25;;;;;;;2.58;1.65;;;6.80;99.90;;;;;;4976514;28;20098;-79
2023/04/05 09:32:54;;;;;;;4.07;1.90;;;6.30;99.90;;;;;;4960593;28;20051;-77
2023/04/05 09:35:28;;;;;;;2.78;1.48;;;6.40;99.90;;;;;;4976331;28;20068;-79
2023/04/05 09:37:57;;;;;;;4.80;1.58;;;6.70;99.90;;;;;;4959660;28;20058;-78
2023/04/05 09:40:23;;;;;;;4.25;1.80;;;6.50;99.90;;;;;;4976600;28;20053;-79
2023/04/05 09:42:51;;;;;;;3.25;1.73;;;6.50;99.90;;;;;;4959746;28;20050;-79
2023/04/05 09:45:17;;;;;;;2.78;1.10;;;7.10;99.90;;;;;;4976763;28;20433;-79
2023/04/05 09:47:54;;;;;;;1.83;1.15;;;6.80;99.90;;;;;;4976435;28;20109;-78
2023/04/05 09:50:20;;;;;;;2.33;1.25;;;6.90;99.90;;;;;;4976511;28;20054;-78
2023/04/05 09:52:47;;;;;;;2.25;1.02;;;6.70;99.90;;;;;;4959386;28;20050;-79
2023/04/05 09:55:13;;;;;;;5.32;1.52;;;7.00;99.90;;;;;;4975924;28;20059;-79
2023/04/05 09:57:41;;;;;;;3.15;1.60;;;7.10;99.90;;;;;;4976209;28;20051;-80
2023/04/05 10:00:18;;;;;;;2.75;1.45;;;7.10;99.90;;;;;;4975904;28;20463;-79
2023/04/05 10:02:46;;;;;;;3.55;1.38;;;7.10;99.90;;;;;;4976771;28;20182;-80
2023/04/05 10:05:14;;;;;;;2.92;1.20;;;7.40;99.90;;;;;;4976104;28;20086;-79
2023/04/05 10:07:43;;;;;;;3.55;1.38;;;7.30;99.90;;;;;;4976405;28;20160;-79
2023/04/05 10:10:11;;;;;;;3.35;1.45;;;7.20;99.90;;;;;;4959010;28;20043;-79
2023/04/05 10:12:40;;;;;;;3.17;1.65;;;7.10;99.90;;;;;;4958976;28;20515;-80
2023/04/05 10:15:10;;;;;;;3.80;2.08;;;7.40;99.90;;;;;;4975979;28;20050;-80
2023/04/05 10:17:59;;;;;;;2.90;1.85;;;7.20;99.90;;;;;;4976192;28;20462;-79
2023/04/05 10:20:27;;;;;;;2.88;1.67;;;7.10;99.90;;;;;;4976035;28;20134;-79
2023/04/05 10:23:23;;;;;;;4.38;1.60;;;7.20;99.90;;;;;;4975551;28;20489;-79
2023/04/05 10:26:11;;;;;;;2.22;1.30;;;7.40;99.90;;;;;;4948273;28;20058;-79
2023/04/05 10:28:46;;;;;;;3.88;1.70;;;7.40;99.90;;;;;;4976169;28;20059;-79
2023/04/05 10:31:42;;;;;;;2.08;1.45;;;7.50;99.90;;;;;;4975674;28;20125;-78
2023/04/05 10:34:25;;;;;;;1.92;1.20;;;7.60;99.90;;;;;;4976199;28;20101;-79
2023/04/05 10:37:00;;;;;;;2.58;1.50;;;7.70;99.90;;;;;;4975955;28;20086;-81
2023/04/05 10:39:39;;;;;;;2.95;1.88;;;8.00;99.90;;;;;;4975573;28;20126;-77
2023/04/05 10:42:25;;;;;;;2.95;1.50;;;8.10;99.90;;;;;;4958090;28;20077;-78
2023/04/05 10:44:58;;;;;;;2.25;1.30;;;7.90;99.90;;;;;;4975959;28;20043;-79
2023/04/05 10:47:27;;;;;;;5.05;1.92;;;8.10;99.90;;;;;;4975426;28;20117;-78
2023/04/05 10:49:56;;;;;;;2.55;1.30;;;8.00;99.90;;;;;;4958139;28;20050;-78
2023/04/05 10:52:23;;;;;;;2.33;1.50;;;8.30;99.90;;;;;;4975385;28;20097;-78
2023/04/05 10:54:49;;;;;;;2.92;1.63;;;8.10;99.90;;;;;;4958042;28;20138;-81
2023/04/05 10:57:18;;;;;;;3.17;1.80;;;8.30;99.90;;;;;;4975247;28;20066;-79
2023/04/05 10:59:45;;;;;;;2.28;1.73;;;8.10;99.90;;;;;;4975220;28;20054;-79
2023/04/05 11:02:13;;;;;;;4.45;1.45;;;8.10;99.90;;;;;;4975712;28;20089;-80
2023/04/05 11:04:40;;;;;;;3.75;2.38;;;8.10;99.90;;;;;;4975415;28;20050;-79
2023/04/05 11:07:14;;;;;;;3.63;1.60;;;8.20;99.90;;;;;;4974876;28;20047;-82
2023/04/05 11:10:01;;;;;;;4.03;1.80;;;8.30;99.90;;;;;;4958682;28;20046;-81
2023/04/05 11:12:45;;;;;;;4.53;2.30;;;8.40;99.90;;;;;;4975014;28;20046;-80
2023/04/05 11:15:34;;;;;;;3.70;2.20;;;8.60;99.90;;;;;;4941685;28;20564;-80
2023/04/05 11:18:10;;;;;;;3.92;2.40;;;8.60;99.90;;;;;;4974692;28;20051;-79
2023/04/05 11:20:42;;;;;;;4.78;2.40;;;8.60;99.90;;;;;;4974899;28;20058;-77
2023/04/05 11:23:10;;;;;;;3.50;2.35;;;8.80;99.90;;;;;;4975690;28;20043;-77
2023/04/05 11:25:44;;;;;;;3.35;2.17;;;8.70;99.90;;;;;;4975073;28;20054;-78
2023/04/05 11:28:27;;;;;;;3.30;2.25;;;8.90;99.90;;;;;;4974949;28;20110;-79
2023/04/05 11:30:57;;;;;;;4.78;2.15;;;8.80;99.90;;;;;;4975671;28;20425;-80
2023/04/05 11:33:53;;;;;;;6.50;3.60;;;8.90;99.90;;;;;;4975014;28;20380;-80
2023/04/05 11:36:51;;;;;;;4.40;2.30;;;9.00;99.90;;;;;;4941462;28;20086;-81
2023/04/05 11:39:17;;;;;;;4.10;2.42;;;9.00;99.90;;;;;;4915661;28;20055;-80
2023/04/05 11:42:07;;;;;;;3.63;2.20;;;9.10;99.90;;;;;;4974219;28;20053;-82
2023/04/05 11:44:50;;;;;;;4.97;2.65;;;9.10;99.90;;;;;;4960782;28;20062;-80
2023/04/05 11:47:17;;;;;;;;;;;9.20;99.30;;;;;;4975397;28;20481;-84
2023/04/05 11:49:46;;;;;;;3.30;2.40;;;9.20;99.90;;;;;;4957896;28;19922;-82
2023/04/05 11:52:16;;;;;;;3.88;2.55;;;9.20;98.40;;;;;;4958810;28;20050;-81
2023/04/05 11:54:45;;;;;;;5.05;2.92;;;9.00;97.30;;;;;;4983052;28;20062;-81
2023/04/05 11:57:18;;;;;;;4.35;2.40;;;9.00;97.70;;;;;;4966568;28;20504;-81
2023/04/05 11:59:44;;;;;;;5.50;2.30;;;9.00;96.50;;;;;;4946584;28;20049;-80
2023/04/05 12:02:10;;;;;;;3.83;2.45;;;9.00;96.20;;;;;;4978424;28;20129;-81
2023/04/05 12:04:36;;;;;;;5.78;2.58;;;9.00;96.20;;;;;;4978404;28;20133;-81
2023/04/05 12:07:13;;;;;;;4.97;2.20;;;9.30;97.00;;;;;;4945839;28;20097;-81
2023/04/05 12:09:58;;;;;;;3.75;2.58;;;9.20;97.60;;;;;;4978413;28;20058;-81
2023/04/05 12:12:24;;;;;;;4.85;2.40;;;9.30;96.40;;;;;;4978798;28;20389;-81
2023/04/05 12:14:49;;;;;;;3.63;2.40;;;9.40;96.40;;;;;;4961380;28;20051;-79
2023/04/05 12:17:15;;;;;;;6.28;2.58;;;9.50;93.80;;;;;;4945038;28;20137;-77
2023/04/05 12:19:41;;;;;;;3.42;2.42;;;9.50;94.50;;;;;;4978268;28;20050;-77
2023/04/05 12:22:07;;;;;;;3.53;2.50;;;9.60;94.50;;;;;;4962077;28;20358;-77
2023/04/05 12:24:33;;;;;;;4.07;2.63;;;9.50;94.30;;;;;;4978352;28;20067;-77
2023/04/05 12:26:59;;;;;;;4.88;2.28;;;9.60;94.40;;;;;;4961197;28;20047;-77
2023/04/05 12:29:25;;;;;;;4.93;2.50;;;9.50;93.90;;;;;;4978271;28;20054;-79
2023/04/05 12:31:51;;;;;;;3.45;2.17;;;9.60;94.40;;;;;;4964970;28;20043;-78
2023/04/05 12:34:26;;;;;;;4.20;2.05;;;9.60;94.30;;;;;;4967077;28;20058;-77
2023/04/05 12:36:52;;;;;;;4.07;2.38;;;9.60;93.10;;;;;;4980899;28;20053;-81
2023/04/05 12:39:20;;;;;;;3.38;2.08;;;9.60;91.50;;;;;;4978725;28;20132;-79
2023/04/05 12:41:59;;;;;;;3.65;2.40;;;9.70;91.10;;;;;;4978054;28;20046;-78
2023/04/05 12:44:30;;;;;;;4.15;2.28;;;9.70;89.50;;;;;;4978507;28;20392;-79
2023/04/05 12:47:02;;;;;;;4.88;2.20;;;9.60;90.80;;;;;;4978141;28;20050;-78
2023/04/05 12:49:28;;;;;;;5.07;2.60;;;9.70;91.30;;;;;;4978025;28;20090;-76
2023/04/05 12:52:00;;;;;;;5.30;2.80;;;9.70;91.90;;;;;;4977827;28;20297;-77
2023/04/05 12:54:26;;;;;;;4.20;2.35;;;9.70;91.60;;;;;;4977699;28;20105;-78
2023/04/05 12:56:53;;;;;;;4.78;2.60;;;9.80;91.60;;;;;;4944563;28;20053;-79
2023/04/05 12:59:23;;;;;;;2.75;2.25;;;9.80;91.40;;;;;;4977901;28;20086;-78
2023/04/05 13:01:49;;;;;;;3.88;2.33;;;9.80;91.20;;;;;;4977673;28;20429;-78
2023/04/05 13:04:14;;;;;;;3.95;1.95;;;9.90;91.00;;;;;;4977816;28;20050;-81